Bosqueville, Texas
Current Conditions -  °F | °C
As of 10:51 PM on Tuesday 25 Nov 2014 (Local Time) from KACT Reporting Station
Clear Clear  
Wind Chill: 34°   Ceiling: Unl
Heat Index: 39°   Visibility: 10mi
Dew Point: 33°   Wind: 7mph
Humidity: 79%   Direction: 230°SW
Pressure: 30.18"   Gusts: NA
Location:  31.618°N, 97.2031°W
Report Text: KACT 260451Z 23006KT 10SM CLR 04/01 A3018 RMK AO2 SLP220 T00390006
Loading
Personal Weather Stations






























Interactive Weather Map New forecast layout! Learn more

10-Day Weather Forecast

Advertisements
Track Severe Weather on mobile